sensor_id;sensor_type;location;lat;lon;timestamp;pressure;altitude;pressure_sealevel;temperature;humidity
65997;BME280;52765;52.258;21.052;2022-08-27T00:01:30;100323.59;;;22.33;69.09
65997;BME280;52765;52.258;21.052;2022-08-27T00:03:55;100320.84;;;22.33;69.57
65997;BME280;52765;52.258;21.052;2022-08-27T00:06:22;100324.78;;;22.38;69.77
65997;BME280;52765;52.258;21.052;2022-08-27T00:08:48;100300.28;;;22.24;70.23
65997;BME280;52765;52.258;21.052;2022-08-27T00:11:16;100309.47;;;22.30;69.62
65997;BME280;52765;52.258;21.052;2022-08-27T00:13:42;100302.41;;;22.22;70.35
65997;BME280;52765;52.258;21.052;2022-08-27T00:16:10;100296.56;;;22.18;70.47
65997;BME280;52765;52.258;21.052;2022-08-27T00:18:36;100310.78;;;22.27;71.14
65997;BME280;52765;52.258;21.052;2022-08-27T00:21:02;100305.41;;;22.21;71.74
65997;BME280;52765;52.258;21.052;2022-08-27T00:23:28;100303.72;;;22.20;71.95
65997;BME280;52765;52.258;21.052;2022-08-27T00:25:54;100275.53;;;22.01;71.91
65997;BME280;52765;52.258;21.052;2022-08-27T00:28:28;100297.72;;;22.11;71.97
65997;BME280;52765;52.258;21.052;2022-08-27T00:30:55;100306.78;;;22.11;72.23
65997;BME280;52765;52.258;21.052;2022-08-27T00:33:22;100300.94;;;22.08;72.75
65997;BME280;52765;52.258;21.052;2022-08-27T00:35:48;100284.31;;;21.91;73.31
65997;BME280;52765;52.258;21.052;2022-08-27T00:38:14;100302.72;;;22.02;73.59
65997;BME280;52765;52.258;21.052;2022-08-27T00:40:40;100306.97;;;21.98;73.93
65997;BME280;52765;52.258;21.052;2022-08-27T00:43:06;100299.09;;;21.90;73.83
65997;BME280;52765;52.258;21.052;2022-08-27T00:45:41;100304.56;;;21.90;74.07
65997;BME280;52765;52.258;21.052;2022-08-27T00:48:10;100296.66;;;21.81;74.46
65997;BME280;52765;52.258;21.052;2022-08-27T00:53:13;100309.22;;;21.89;75.30
65997;BME280;52765;52.258;21.052;2022-08-27T00:55:44;100308.28;;;21.84;75.51
65997;BME280;52765;52.258;21.052;2022-08-27T00:58:26;100293.56;;;21.78;75.36
65997;BME280;52765;52.258;21.052;2022-08-27T01:00:53;100290.09;;;21.71;75.93
65997;BME280;52765;52.258;21.052;2022-08-27T01:03:19;100307.91;;;21.80;75.74
65997;BME280;52765;52.258;21.052;2022-08-27T01:05:46;100289.41;;;21.75;76.10
65997;BME280;52765;52.258;21.052;2022-08-27T01:08:25;100300.72;;;21.79;76.62
65997;BME280;52765;52.258;21.052;2022-08-27T01:10:53;100298.91;;;21.73;77.20
65997;BME280;52765;52.258;21.052;2022-08-27T01:13:24;100293.16;;;21.62;77.42
65997;BME280;52765;52.258;21.052;2022-08-27T01:15:50;100295.75;;;21.57;77.78
65997;BME280;52765;52.258;21.052;2022-08-27T01:18:18;100289.81;;;21.42;79.14
65997;BME280;52765;52.258;21.052;2022-08-27T01:21:18;100296.13;;;21.42;79.63
65997;BME280;52765;52.258;21.052;2022-08-27T01:23:58;100301.06;;;21.34;80.01
65997;BME280;52765;52.258;21.052;2022-08-27T01:26:28;100292.84;;;21.34;80.27
65997;BME280;52765;52.258;21.052;2022-08-27T01:28:54;100289.88;;;21.35;80.55
65997;BME280;52765;52.258;21.052;2022-08-27T01:31:20;100281.31;;;21.32;80.96
65997;BME280;52765;52.258;21.052;2022-08-27T01:34:01;100287.91;;;21.42;80.74
65997;BME280;52765;52.258;21.052;2022-08-27T01:36:27;100277.94;;;21.30;81.09
65997;BME280;52765;52.258;21.052;2022-08-27T01:38:53;100289.03;;;21.35;81.17
65997;BME280;52765;52.258;21.052;2022-08-27T01:41:19;100297.75;;;21.32;81.39
65997;BME280;52765;52.258;21.052;2022-08-27T01:43:47;100301.31;;;21.32;81.35
65997;BME280;52765;52.258;21.052;2022-08-27T01:46:13;100292.72;;;21.29;81.85
65997;BME280;52765;52.258;21.052;2022-08-27T01:48:39;100285.16;;;21.24;81.90
65997;BME280;52765;52.258;21.052;2022-08-27T01:51:09;100293.84;;;21.21;81.87
65997;BME280;52765;52.258;21.052;2022-08-27T01:53:35;100280.91;;;21.10;81.91
65997;BME280;52765;52.258;21.052;2022-08-27T01:56:01;100287.91;;;21.05;82.83
65997;BME280;52765;52.258;21.052;2022-08-27T01:58:29;100272.22;;;20.94;83.35
65997;BME280;52765;52.258;21.052;2022-08-27T02:00:58;100287.59;;;20.95;83.82
65997;BME280;52765;52.258;21.052;2022-08-27T02:03:25;100292.13;;;20.83;84.31
65997;BME280;52765;52.258;21.052;2022-08-27T02:05:51;100288.56;;;20.82;84.76
65997;BME280;52765;52.258;21.052;2022-08-27T02:08:18;100288.03;;;20.74;84.96
65997;BME280;52765;52.258;21.052;2022-08-27T02:10:45;100287.34;;;20.78;85.29
65997;BME280;52765;52.258;21.052;2022-08-27T02:13:11;100287.53;;;20.83;85.35
65997;BME280;52765;52.258;21.052;2022-08-27T02:15:38;100283.47;;;20.86;85.52
65997;BME280;52765;52.258;21.052;2022-08-27T02:18:05;100275.13;;;20.81;85.40
65997;BME280;52765;52.258;21.052;2022-08-27T02:20:32;100254.44;;;20.60;85.60
65997;BME280;52765;52.258;21.052;2022-08-27T02:22:58;100259.06;;;20.59;86.04
65997;BME280;52765;52.258;21.052;2022-08-27T02:25:24;100288.09;;;20.67;86.21
65997;BME280;52765;52.258;21.052;2022-08-27T02:27:51;100280.53;;;20.62;86.45
65997;BME280;52765;52.258;21.052;2022-08-27T02:30:21;100254.94;;;20.50;87.18
65997;BME280;52765;52.258;21.052;2022-08-27T02:32:48;100281.38;;;20.63;87.28
65997;BME280;52765;52.258;21.052;2022-08-27T02:35:15;100270.53;;;20.49;87.19
65997;BME280;52765;52.258;21.052;2022-08-27T02:37:41;100286.66;;;20.58;87.10
65997;BME280;52765;52.258;21.052;2022-08-27T02:40:08;100278.34;;;20.46;87.60
65997;BME280;52765;52.258;21.052;2022-08-27T02:42:35;100281.75;;;20.41;87.88
65997;BME280;52765;52.258;21.052;2022-08-27T02:45:01;100291.03;;;20.40;88.42
65997;BME280;52765;52.258;21.052;2022-08-27T02:47:26;100279.13;;;20.28;88.79
65997;BME280;52765;52.258;21.052;2022-08-27T02:49:52;100283.56;;;20.29;88.95
65997;BME280;52765;52.258;21.052;2022-08-27T02:52:18;100282.47;;;20.30;88.66
65997;BME280;52765;52.258;21.052;2022-08-27T02:54:43;100282.47;;;20.30;88.80
65997;BME280;52765;52.258;21.052;2022-08-27T02:57:09;100289.63;;;20.31;89.12
65997;BME280;52765;52.258;21.052;2022-08-27T02:59:35;100284.59;;;20.28;89.49
65997;BME280;52765;52.258;21.052;2022-08-27T03:02:01;100283.16;;;20.25;89.59
65997;BME280;52765;52.258;21.052;2022-08-27T03:04:26;100280.88;;;20.22;89.87
65997;BME280;52765;52.258;21.052;2022-08-27T03:06:54;100283.22;;;20.19;90.13
65997;BME280;52765;52.258;21.052;2022-08-27T03:09:20;100275.50;;;20.09;90.41
65997;BME280;52765;52.258;21.052;2022-08-27T03:11:45;100275.88;;;20.12;90.93
65997;BME280;52765;52.258;21.052;2022-08-27T03:14:11;100285.94;;;20.19;91.12
65997;BME280;52765;52.258;21.052;2022-08-27T03:16:37;100293.47;;;20.23;90.90
65997;BME280;52765;52.258;21.052;2022-08-27T03:19:04;100287.78;;;20.25;91.19
65997;BME280;52765;52.258;21.052;2022-08-27T03:21:34;100292.38;;;20.31;90.90
65997;BME280;52765;52.258;21.052;2022-08-27T03:24:00;100290.25;;;20.33;91.17
65997;BME280;52765;52.258;21.052;2022-08-27T03:26:27;100279.13;;;20.28;91.18
65997;BME280;52765;52.258;21.052;2022-08-27T03:28:53;100285.03;;;20.25;91.05
65997;BME280;52765;52.258;21.052;2022-08-27T03:31:21;100287.94;;;20.30;91.11
65997;BME280;52765;52.258;21.052;2022-08-27T03:34:04;100275.78;;;20.26;91.25
65997;BME280;52765;52.258;21.052;2022-08-27T03:36:33;100283.16;;;20.25;91.49
65997;BME280;52765;52.258;21.052;2022-08-27T03:38:59;100281.25;;;20.26;91.47
65997;BME280;52765;52.258;21.052;2022-08-27T03:41:24;100263.91;;;20.13;91.50
65997;BME280;52765;52.258;21.052;2022-08-27T03:43:50;100275.41;;;20.22;91.71
65997;BME280;52765;52.258;21.052;2022-08-27T03:46:19;100274.09;;;20.25;91.35
65997;BME280;52765;52.258;21.052;2022-08-27T03:48:45;100278.09;;;20.29;91.30
65997;BME280;52765;52.258;21.052;2022-08-27T03:51:13;100248.16;;;20.09;91.27
65997;BME280;52765;52.258;21.052;2022-08-27T03:53:42;100276.84;;;20.25;91.63
65997;BME280;52765;52.258;21.052;2022-08-27T03:56:09;100285.09;;;20.18;91.66
65997;BME280;52765;52.258;21.052;2022-08-27T03:58:35;100282.78;;;20.15;92.07
65997;BME280;52765;52.258;21.052;2022-08-27T04:01:02;100282.63;;;20.10;92.35
65997;BME280;52765;52.258;21.052;2022-08-27T04:03:28;100277.63;;;20.07;92.22
65997;BME280;52765;52.258;21.052;2022-08-27T04:05:55;100283.88;;;20.14;92.51
65997;BME280;52765;52.258;21.052;2022-08-27T04:08:22;100284.25;;;20.18;92.56
65997;BME280;52765;52.258;21.052;2022-08-27T04:10:48;100269.13;;;20.15;92.44
65997;BME280;52765;52.258;21.052;2022-08-27T04:13:15;100276.84;;;20.25;92.36
65997;BME280;52765;52.258;21.052;2022-08-27T04:15:43;100275.78;;;20.26;92.26
65997;BME280;52765;52.258;21.052;2022-08-27T04:18:09;100263.22;;;20.18;91.92
65997;BME280;52765;52.258;21.052;2022-08-27T04:20:36;100267.25;;;20.15;91.70
65997;BME280;52765;52.258;21.052;2022-08-27T04:23:02;100281.53;;;20.18;91.95
65997;BME280;52765;52.258;21.052;2022-08-27T04:25:27;100261.38;;;20.12;92.24
65997;BME280;52765;52.258;21.052;2022-08-27T04:27:53;100254.94;;;20.00;92.01
65997;BME280;52765;52.258;21.052;2022-08-27T04:30:19;100260.53;;;20.11;91.86
65997;BME280;52765;52.258;21.052;2022-08-27T04:32:44;100279.41;;;20.20;91.92
65997;BME280;52765;52.258;21.052;2022-08-27T04:35:12;100264.94;;;20.12;91.96
65997;BME280;52765;52.258;21.052;2022-08-27T04:37:39;100280.31;;;20.13;91.85
65997;BME280;52765;52.258;21.052;2022-08-27T04:40:05;100274.25;;;20.05;91.88
65997;BME280;52765;52.258;21.052;2022-08-27T04:42:31;100284.31;;;20.11;92.12
65997;BME280;52765;52.258;21.052;2022-08-27T04:44:57;100264.63;;;20.02;92.19
65997;BME280;52765;52.258;21.052;2022-08-27T04:47:22;100273.63;;;20.03;92.45
65997;BME280;52765;52.258;21.052;2022-08-27T04:49:48;100283.31;;;20.05;92.35
65997;BME280;52765;52.258;21.052;2022-08-27T04:52:14;100271.97;;;20.02;92.31
65997;BME280;52765;52.258;21.052;2022-08-27T04:54:40;100279.28;;;20.08;92.02
65997;BME280;52765;52.258;21.052;2022-08-27T04:57:06;100283.66;;;20.15;92.04
65997;BME280;52765;52.258;21.052;2022-08-27T04:59:33;100277.53;;;20.20;91.74
65997;BME280;52765;52.258;21.052;2022-08-27T05:01:59;100275.44;;;20.15;91.65
65997;BME280;52765;52.258;21.052;2022-08-27T05:04:25;100287.78;;;20.25;91.30
65997;BME280;52765;52.258;21.052;2022-08-27T05:06:51;100285.09;;;20.18;91.38
65997;BME280;52765;52.258;21.052;2022-08-27T05:09:17;100273.16;;;20.12;91.65
65997;BME280;52765;52.258;21.052;2022-08-27T05:11:43;100289.28;;;20.21;91.73
65997;BME280;52765;52.258;21.052;2022-08-27T05:14:11;100276.72;;;20.13;91.53
65997;BME280;52765;52.258;21.052;2022-08-27T05:16:38;100277.56;;;20.13;91.20
65997;BME280;52765;52.258;21.052;2022-08-27T05:19:05;100285.25;;;20.23;91.07
65997;BME280;52765;52.258;21.052;2022-08-27T05:21:33;100296.41;;;20.28;91.39
65997;BME280;52765;52.258;21.052;2022-08-27T05:24:01;100282.25;;;20.31;91.19
65997;BME280;52765;52.258;21.052;2022-08-27T05:26:28;100280.97;;;20.34;91.14
65997;BME280;52765;52.258;21.052;2022-08-27T05:28:54;100256.81;;;20.31;90.90
65997;BME280;52765;52.258;21.052;2022-08-27T05:31:20;100280.88;;;20.47;90.65
65997;BME280;52765;52.258;21.052;2022-08-27T05:33:47;100268.00;;;20.48;90.53
65997;BME280;52765;52.258;21.052;2022-08-27T05:36:19;100266.91;;;20.56;90.46
65997;BME280;52765;52.258;21.052;2022-08-27T05:38:45;100278.66;;;20.63;89.99
65997;BME280;52765;52.258;21.052;2022-08-27T05:41:15;100278.81;;;20.68;89.92
65997;BME280;52765;52.258;21.052;2022-08-27T05:43:42;100272.28;;;20.69;89.45
65997;BME280;52765;52.258;21.052;2022-08-27T05:46:11;100277.31;;;20.72;89.59
65997;BME280;52765;52.258;21.052;2022-08-27T05:48:38;100277.31;;;20.72;89.89
65997;BME280;52765;52.258;21.052;2022-08-27T05:51:19;100271.63;;;20.74;89.78
65997;BME280;52765;52.258;21.052;2022-08-27T05:53:45;100287.13;;;20.80;89.52
65997;BME280;52765;52.258;21.052;2022-08-27T05:56:13;100280.06;;;20.91;89.35
65997;BME280;52765;52.258;21.052;2022-08-27T05:58:38;100275.88;;;20.88;89.18
65997;BME280;52765;52.258;21.052;2022-08-27T06:01:23;100285.84;;;21.01;88.75
65997;BME280;52765;52.258;21.052;2022-08-27T06:03:48;100275.13;;;20.99;88.85
65997;BME280;52765;52.258;21.052;2022-08-27T06:06:17;100285.31;;;21.11;88.71
65997;BME280;52765;52.258;21.052;2022-08-27T06:08:43;100280.53;;;21.24;88.18
65997;BME280;52765;52.258;21.052;2022-08-27T06:11:08;100285.00;;;21.37;87.63
65997;BME280;52765;52.258;21.052;2022-08-27T06:13:36;100275.66;;;21.45;87.42
65997;BME280;52765;52.258;21.052;2022-08-27T06:16:03;100280.44;;;21.50;87.10
65997;BME280;52765;52.258;21.052;2022-08-27T06:18:31;100244.97;;;21.36;87.18
65997;BME280;52765;52.258;21.052;2022-08-27T06:20:57;100264.69;;;21.64;86.37
65997;BME280;52765;52.258;21.052;2022-08-27T06:23:23;100276.97;;;21.73;86.05
65997;BME280;52765;52.258;21.052;2022-08-27T06:25:49;100259.34;;;21.69;86.17
65997;BME280;52765;52.258;21.052;2022-08-27T06:28:18;100265.91;;;21.79;85.51
65997;BME280;52765;52.258;21.052;2022-08-27T06:30:45;100273.34;;;21.91;85.31
65997;BME280;52765;52.258;21.052;2022-08-27T06:33:11;100280.56;;;22.04;84.91
65997;BME280;52765;52.258;21.052;2022-08-27T06:35:36;100265.16;;;22.03;84.72
65997;BME280;52765;52.258;21.052;2022-08-27T06:38:02;100277.72;;;22.22;84.31
65997;BME280;52765;52.258;21.052;2022-08-27T06:40:27;100273.75;;;22.37;83.59
65997;BME280;52765;52.258;21.052;2022-08-27T06:42:53;100283.63;;;22.61;82.67
65997;BME280;52765;52.258;21.052;2022-08-27T06:45:19;100279.13;;;22.79;81.91
65997;BME280;52765;52.258;21.052;2022-08-27T06:47:44;100258.56;;;22.81;81.18
65997;BME280;52765;52.258;21.052;2022-08-27T06:50:10;100286.41;;;23.08;80.53
65997;BME280;52765;52.258;21.052;2022-08-27T06:52:36;100276.22;;;23.21;79.79
65997;BME280;52765;52.258;21.052;2022-08-27T06:55:01;100274.66;;;23.25;79.23
65997;BME280;52765;52.258;21.052;2022-08-27T06:57:27;100282.78;;;23.32;79.33
65997;BME280;52765;52.258;21.052;2022-08-27T06:59:52;100281.44;;;23.34;79.00
65997;BME280;52765;52.258;21.052;2022-08-27T07:02:18;100278.31;;;23.42;78.46
65997;BME280;52765;52.258;21.052;2022-08-27T07:04:43;100285.34;;;23.50;78.44
65997;BME280;52765;52.258;21.052;2022-08-27T07:07:10;100280.09;;;23.49;77.60
65997;BME280;52765;52.258;21.052;2022-08-27T07:09:37;100286.13;;;23.62;77.36
65997;BME280;52765;52.258;21.052;2022-08-27T07:12:03;100271.91;;;23.65;75.95
65997;BME280;52765;52.258;21.052;2022-08-27T07:14:29;100261.56;;;23.73;74.63
65997;BME280;52765;52.258;21.052;2022-08-27T07:16:54;100268.13;;;23.83;74.22
65997;BME280;52765;52.258;21.052;2022-08-27T07:19:20;100270.09;;;24.00;74.34
65997;BME280;52765;52.258;21.052;2022-08-27T07:21:46;100241.38;;;23.96;73.95
65997;BME280;52765;52.258;21.052;2022-08-27T07:24:12;100264.44;;;24.24;73.32
65997;BME280;52765;52.258;21.052;2022-08-27T07:26:40;100251.25;;;24.26;71.29
65997;BME280;52765;52.258;21.052;2022-08-27T07:29:10;100263.28;;;24.36;67.75
65997;BME280;52765;52.258;21.052;2022-08-27T07:31:37;100250.59;;;24.35;66.70
65997;BME280;52765;52.258;21.052;2022-08-27T07:34:04;100266.75;;;24.49;63.77
65997;BME280;52765;52.258;21.052;2022-08-27T07:36:30;100268.38;;;24.62;63.16
65997;BME280;52765;52.258;21.052;2022-08-27T07:38:56;100262.44;;;24.70;63.06
65997;BME280;52765;52.258;21.052;2022-08-27T07:41:22;100253.75;;;24.78;62.03
65997;BME280;52765;52.258;21.052;2022-08-27T07:43:47;100259.72;;;24.92;62.00
65997;BME280;52765;52.258;21.052;2022-08-27T07:46:32;100265.19;;;25.09;62.66
65997;BME280;52765;52.258;21.052;2022-08-27T07:48:57;100258.09;;;25.13;62.48
65997;BME280;52765;52.258;21.052;2022-08-27T07:51:25;100263.72;;;25.23;61.73
65997;BME280;52765;52.258;21.052;2022-08-27T07:53:52;100253.78;;;25.22;61.38
65997;BME280;52765;52.258;21.052;2022-08-27T07:56:19;100255.28;;;25.30;60.89
65997;BME280;52765;52.258;21.052;2022-08-27T07:58:46;100259.56;;;25.43;60.51
65997;BME280;52765;52.258;21.052;2022-08-27T08:01:12;100262.47;;;25.53;59.87
65997;BME280;52765;52.258;21.052;2022-08-27T08:03:39;100253.06;;;25.54;59.59
65997;BME280;52765;52.258;21.052;2022-08-27T08:06:08;100240.97;;;25.55;57.58
65997;BME280;52765;52.258;21.052;2022-08-27T08:08:35;100264.81;;;25.66;55.95
65997;BME280;52765;52.258;21.052;2022-08-27T08:11:01;100257.19;;;25.79;55.66
65997;BME280;52765;52.258;21.052;2022-08-27T08:13:29;100243.41;;;25.79;54.74
65997;BME280;52765;52.258;21.052;2022-08-27T08:15:56;100256.22;;;25.90;53.31
65997;BME280;52765;52.258;21.052;2022-08-27T08:18:22;100248.84;;;25.96;50.51
65997;BME280;52765;52.258;21.052;2022-08-27T08:20:48;100259.75;;;26.13;50.87
65997;BME280;52765;52.258;21.052;2022-08-27T08:23:14;100263.69;;;26.22;50.95
65997;BME280;52765;52.258;21.052;2022-08-27T08:25:40;100243.84;;;26.25;50.65
65997;BME280;52765;52.258;21.052;2022-08-27T08:28:06;100261.94;;;26.43;50.67
65997;BME280;52765;52.258;21.052;2022-08-27T08:30:31;100256.19;;;26.50;50.67
65997;BME280;52765;52.258;21.052;2022-08-27T08:32:57;100252.94;;;26.58;50.97
65997;BME280;52765;52.258;21.052;2022-08-27T08:35:23;100264.09;;;26.68;50.20
65997;BME280;52765;52.258;21.052;2022-08-27T08:37:49;100260.22;;;26.69;50.57
65997;BME280;52765;52.258;21.052;2022-08-27T08:40:34;100257.47;;;26.74;50.86
65997;BME280;52765;52.258;21.052;2022-08-27T08:43:01;100260.22;;;26.69;49.99
65997;BME280;52765;52.258;21.052;2022-08-27T08:45:31;100266.41;;;26.87;50.06
65997;BME280;52765;52.258;21.052;2022-08-27T08:48:08;100258.97;;;26.92;49.67
65997;BME280;52765;52.258;21.052;2022-08-27T08:51:04;100265.97;;;27.10;48.81
65997;BME280;52765;52.258;21.052;2022-08-27T08:53:45;100258.78;;;27.14;49.14
65997;BME280;52765;52.258;21.052;2022-08-27T08:56:19;100268.28;;;27.29;48.73
65997;BME280;52765;52.258;21.052;2022-08-27T08:58:58;100246.72;;;27.31;49.13
65997;BME280;52765;52.258;21.052;2022-08-27T09:01:26;100263.91;;;27.38;49.46
65997;BME280;52765;52.258;21.052;2022-08-27T09:03:58;100252.88;;;27.43;49.88
65997;BME280;52765;52.258;21.052;2022-08-27T09:06:44;100266.47;;;27.55;50.69
65997;BME280;52765;52.258;21.052;2022-08-27T09:12:27;100269.81;;;27.67;50.17
65997;BME280;52765;52.258;21.052;2022-08-27T09:15:02;100258.72;;;27.67;50.28
65997;BME280;52765;52.258;21.052;2022-08-27T09:17:30;100257.91;;;27.72;49.46
65997;BME280;52765;52.258;21.052;2022-08-27T09:19:55;100259.59;;;27.83;49.81
65997;BME280;52765;52.258;21.052;2022-08-27T09:22:31;100259.06;;;27.92;49.77
65997;BME280;52765;52.258;21.052;2022-08-27T09:25:19;100262.09;;;27.90;48.38
65997;BME280;52765;52.258;21.052;2022-08-27T09:27:46;100254.94;;;27.94;48.40
65997;BME280;52765;52.258;21.052;2022-08-27T09:30:19;100249.13;;;28.06;48.33
65997;BME280;52765;52.258;21.052;2022-08-27T09:32:52;100242.50;;;28.12;47.85
65997;BME280;52765;52.258;21.052;2022-08-27T09:35:21;100254.13;;;28.19;48.10
65997;BME280;52765;52.258;21.052;2022-08-27T09:37:47;100255.50;;;28.32;48.07
65997;BME280;52765;52.258;21.052;2022-08-27T09:43:36;100245.81;;;28.45;46.90
65997;BME280;52765;52.258;21.052;2022-08-27T09:45:47;100238.31;;;28.51;46.18
65997;BME280;52765;52.258;21.052;2022-08-27T09:48:20;100251.06;;;28.62;45.66
65997;BME280;52765;52.258;21.052;2022-08-27T09:51:13;100250.75;;;28.79;45.57
65997;BME280;52765;52.258;21.052;2022-08-27T09:53:42;100251.56;;;28.90;45.70
65997;BME280;52765;52.258;21.052;2022-08-27T09:56:21;100226.56;;;29.05;45.26
65997;BME280;52765;52.258;21.052;2022-08-27T09:59:00;100228.78;;;29.08;44.64
65997;BME280;52765;52.258;21.052;2022-08-27T10:01:29;100234.84;;;29.21;44.61
65997;BME280;52765;52.258;21.052;2022-08-27T10:04:11;100223.50;;;29.17;44.34
65997;BME280;52765;52.258;21.052;2022-08-27T10:06:44;100230.97;;;29.22;44.30
65997;BME280;52765;52.258;21.052;2022-08-27T10:09:27;100232.91;;;29.11;44.67
65997;BME280;52765;52.258;21.052;2022-08-27T10:11:58;100236.28;;;28.97;44.67
65997;BME280;52765;52.258;21.052;2022-08-27T10:14:31;100232.97;;;28.95;44.28
65997;BME280;52765;52.258;21.052;2022-08-27T10:25:28;100219.50;;;29.88;42.21
65997;BME280;52765;52.258;21.052;2022-08-27T10:30:52;100221.22;;;30.14;40.37
65997;BME280;52765;52.258;21.052;2022-08-27T10:39:42;100213.13;;;30.52;38.44
65997;BME280;52765;52.258;21.052;2022-08-27T10:42:34;100214.91;;;30.67;38.28
65997;BME280;52765;52.258;21.052;2022-08-27T10:45:33;100213.38;;;30.79;38.20
65997;BME280;52765;52.258;21.052;2022-08-27T10:48:38;100212.13;;;30.91;37.54
65997;BME280;52765;52.258;21.052;2022-08-27T10:51:26;100207.38;;;30.96;36.62
65997;BME280;52765;52.258;21.052;2022-08-27T10:59:35;100203.72;;;31.01;35.87
65997;BME280;52765;52.258;21.052;2022-08-27T11:02:21;100207.75;;;31.09;34.69
65997;BME280;52765;52.258;21.052;2022-08-27T11:04:55;100204.38;;;31.12;33.46
65997;BME280;52765;52.258;21.052;2022-08-27T11:07:29;100201.84;;;31.15;32.75
65997;BME280;52765;52.258;21.052;2022-08-27T11:09:59;100203.34;;;31.27;32.36
65997;BME280;52765;52.258;21.052;2022-08-27T11:12:37;100200.22;;;31.33;32.07
65997;BME280;52765;52.258;21.052;2022-08-27T11:17:41;100210.47;;;31.57;32.87
65997;BME280;52765;52.258;21.052;2022-08-27T11:20:10;100199.94;;;31.73;32.29
65997;BME280;52765;52.258;21.052;2022-08-27T11:22:50;100195.47;;;31.91;30.81
65997;BME280;52765;52.258;21.052;2022-08-27T11:25:26;100191.97;;;31.99;30.67
65997;BME280;52765;52.258;21.052;2022-08-27T11:27:55;100198.03;;;32.06;30.23
65997;BME280;52765;52.258;21.052;2022-08-27T11:30:26;100199.44;;;32.23;30.71
65997;BME280;52765;52.258;21.052;2022-08-27T11:33:25;100188.91;;;32.34;29.60
65997;BME280;52765;52.258;21.052;2022-08-27T11:44:29;100198.59;;;32.83;28.05
65997;BME280;52765;52.258;21.052;2022-08-27T11:47:19;100193.91;;;32.92;26.68
65997;BME280;52765;52.258;21.052;2022-08-27T11:50:06;100197.97;;;33.00;27.30
65997;BME280;52765;52.258;21.052;2022-08-27T11:52:53;100191.03;;;32.97;26.83
65997;BME280;52765;52.258;21.052;2022-08-27T11:57:46;100202.72;;;32.99;26.92
65997;BME280;52765;52.258;21.052;2022-08-27T12:05:45;100193.72;;;32.75;27.20
65997;BME280;52765;52.258;21.052;2022-08-27T12:16:57;100179.00;;;33.11;27.33
65997;BME280;52765;52.258;21.052;2022-08-27T12:22:26;100171.34;;;33.44;26.34
65997;BME280;52765;52.258;21.052;2022-08-27T12:24:54;100177.19;;;33.06;26.97
65997;BME280;52765;52.258;21.052;2022-08-27T12:29:48;100157.06;;;32.07;26.98
65997;BME280;52765;52.258;21.052;2022-08-27T12:32:41;100176.38;;;31.84;27.70
65997;BME280;52765;52.258;21.052;2022-08-27T12:35:15;100170.81;;;31.84;27.58
65997;BME280;52765;52.258;21.052;2022-08-27T12:40:27;100168.16;;;31.74;27.88
65997;BME280;52765;52.258;21.052;2022-08-27T12:43:20;100175.34;;;31.61;28.54
65997;BME280;52765;52.258;21.052;2022-08-27T12:45:54;100164.94;;;31.48;28.81
65997;BME280;52765;52.258;21.052;2022-08-27T12:48:24;100175.91;;;31.39;28.55
65997;BME280;52765;52.258;21.052;2022-08-27T12:51:06;100176.56;;;31.31;28.73
65997;BME280;52765;52.258;21.052;2022-08-27T13:01:25;100176.69;;;31.45;29.19
65997;BME280;52765;52.258;21.052;2022-08-27T13:03:55;100174.19;;;31.43;28.94
65997;BME280;52765;52.258;21.052;2022-08-27T13:06:31;100169.66;;;31.47;29.31
65997;BME280;52765;52.258;21.052;2022-08-27T13:09:05;100172.47;;;31.66;28.93
65997;BME280;52765;52.258;21.052;2022-08-27T13:11:32;100170.50;;;31.67;28.35
65997;BME280;52765;52.258;21.052;2022-08-27T13:14:11;100167.59;;;31.58;28.45
65997;BME280;52765;52.258;21.052;2022-08-27T13:16:43;100166.88;;;31.47;28.71
65997;BME280;52765;52.258;21.052;2022-08-27T13:19:18;100170.25;;;31.44;28.16
65997;BME280;52765;52.258;21.052;2022-08-27T13:21:48;100153.19;;;31.32;28.99
65997;BME280;52765;52.258;21.052;2022-08-27T13:24:19;100154.03;;;31.32;28.97
65997;BME280;52765;52.258;21.052;2022-08-27T13:26:50;100165.78;;;31.29;29.11
65997;BME280;52765;52.258;21.052;2022-08-27T13:29:24;100174.16;;;31.24;28.80
65997;BME280;52765;52.258;21.052;2022-08-27T13:31:53;100159.00;;;31.16;28.89
65997;BME280;52765;52.258;21.052;2022-08-27T13:34:22;100167.56;;;31.20;29.14
65997;BME280;52765;52.258;21.052;2022-08-27T13:37:22;100165.59;;;31.21;29.06
65997;BME280;52765;52.258;21.052;2022-08-27T13:39:52;100166.44;;;31.21;29.46
65997;BME280;52765;52.258;21.052;2022-08-27T13:42:18;100159.06;;;31.11;29.22
65997;BME280;52765;52.258;21.052;2022-08-27T13:44:44;100153.88;;;31.05;29.60
65997;BME280;52765;52.258;21.052;2022-08-27T13:47:22;100146.41;;;31.00;29.54
65997;BME280;52765;52.258;21.052;2022-08-27T13:49:49;100158.69;;;30.94;29.89
65997;BME280;52765;52.258;21.052;2022-08-27T13:52:30;100155.38;;;30.92;30.09
65997;BME280;52765;52.258;21.052;2022-08-27T13:57:29;100156.50;;;30.91;30.35
65997;BME280;52765;52.258;21.052;2022-08-27T14:02:46;100149.31;;;30.90;30.45
65997;BME280;52765;52.258;21.052;2022-08-27T14:05:14;100161.47;;;30.94;30.51
65997;BME280;52765;52.258;21.052;2022-08-27T14:07:49;100153.38;;;30.97;29.98
65997;BME280;52765;52.258;21.052;2022-08-27T14:10:29;100157.25;;;31.02;30.22
65997;BME280;52765;52.258;21.052;2022-08-27T14:13:01;100145.03;;;30.97;30.14
65997;BME280;52765;52.258;21.052;2022-08-27T14:15:43;100155.72;;;31.09;30.03